createdAt,value
2017-12-03T00:01:06.668Z,53.28
2017-12-03T00:03:33.567Z,40.05
2017-12-03T00:06:00.488Z,42.60
2017-12-03T00:08:27.375Z,46.03
2017-12-03T00:10:55.033Z,39.05
2017-12-03T00:13:22.667Z,48.25
2017-12-03T00:15:49.524Z,42.53
2017-12-03T00:18:16.447Z,48.22
2017-12-03T00:20:43.320Z,44.70
2017-12-03T00:23:10.184Z,48.85
2017-12-03T00:25:37.078Z,43.03
2017-12-03T00:28:03.940Z,55.72
2017-12-03T00:30:30.822Z,66.65
2017-12-03T00:32:57.706Z,53.58
2017-12-03T00:35:24.564Z,40.03
2017-12-03T00:37:51.407Z,43.95
2017-12-03T00:40:18.327Z,63.10
2017-12-03T00:42:45.205Z,50.65
2017-12-03T00:45:12.100Z,70.40
2017-12-03T00:47:38.967Z,70.05
2017-12-03T00:50:05.835Z,48.45
2017-12-03T00:52:32.731Z,46.55
2017-12-03T00:54:59.615Z,44.00
2017-12-03T00:57:26.533Z,45.25
2017-12-03T00:59:53.408Z,46.95
2017-12-03T01:02:20.298Z,35.72
2017-12-03T01:04:47.195Z,33.25
2017-12-03T01:07:14.079Z,34.53
2017-12-03T01:09:40.943Z,33.63
2017-12-03T01:12:07.856Z,34.95
2017-12-03T01:14:35.508Z,34.42
2017-12-03T01:17:03.209Z,39.17
2017-12-03T01:19:30.052Z,37.50
2017-12-03T01:21:56.936Z,37.80
2017-12-03T01:24:23.828Z,32.80
2017-12-03T01:26:50.760Z,36.80
2017-12-03T01:29:18.419Z,30.83
2017-12-03T01:31:46.012Z,34.13
2017-12-03T01:34:12.892Z,36.85
2017-12-03T01:36:39.763Z,39.50
2017-12-03T01:39:07.359Z,39.33
2017-12-03T01:41:34.291Z,38.92
2017-12-03T01:44:01.175Z,38.60
2017-12-03T01:46:28.077Z,40.12
2017-12-03T01:48:55.727Z,47.85
2017-12-03T01:51:22.654Z,48.42
2017-12-03T01:53:50.292Z,48.63
2017-12-03T01:56:17.212Z,42.35
2017-12-03T01:58:44.102Z,44.28
2017-12-03T02:01:11.228Z,43.22
2017-12-03T02:03:38.121Z,48.10
2017-12-03T02:06:05.095Z,44.60
2017-12-03T02:08:32.028Z,35.28
2017-12-03T02:10:58.910Z,46.63
2017-12-03T02:13:25.835Z,43.33
2017-12-03T02:15:52.728Z,42.22
2017-12-03T02:18:20.557Z,35.33
2017-12-03T02:20:47.452Z,36.22
2017-12-03T02:23:14.320Z,58.03
2017-12-03T02:25:41.240Z,56.22
2017-12-03T02:28:08.871Z,51.55
2017-12-03T02:30:36.516Z,38.35
2017-12-03T02:33:03.447Z,45.40
2017-12-03T02:35:30.353Z,38.25
2017-12-03T02:37:57.268Z,47.33
2017-12-03T02:40:24.143Z,46.58
2017-12-03T02:42:51.765Z,60.55
2017-12-03T02:45:19.408Z,43.05
2017-12-03T02:47:46.284Z,54.50
2017-12-03T02:50:13.149Z,76.37
2017-12-03T02:52:40.788Z,46.78
2017-12-03T02:55:08.451Z,61.08
2017-12-03T02:57:35.318Z,52.60
2017-12-03T03:00:02.272Z,46.50
2017-12-03T03:02:29.188Z,48.92
2017-12-03T03:04:56.811Z,39.00
2017-12-03T03:07:23.723Z,44.47
2017-12-03T03:09:51.343Z,40.38
2017-12-03T03:12:18.225Z,45.63
2017-12-03T03:14:45.175Z,34.60
2017-12-03T03:17:12.047Z,37.35
2017-12-03T03:19:38.939Z,38.58
2017-12-03T03:22:06.585Z,32.05
2017-12-03T03:24:33.461Z,35.38
2017-12-03T03:27:00.364Z,44.88
2017-12-03T03:29:27.977Z,37.58
2017-12-03T03:31:54.872Z,37.55
2017-12-03T03:34:21.747Z,35.60
2017-12-03T03:36:49.411Z,31.52
2017-12-03T03:39:16.332Z,34.63
2017-12-03T03:41:43.961Z,32.08
2017-12-03T03:44:10.885Z,30.62
2017-12-03T03:46:37.842Z,29.35
2017-12-03T03:49:04.697Z,32.85
2017-12-03T03:51:31.632Z,28.12
2017-12-03T03:53:58.536Z,29.00
2017-12-03T03:56:25.484Z,36.13
2017-12-03T03:58:52.395Z,31.75
2017-12-03T04:01:19.290Z,30.95
2017-12-03T04:03:46.192Z,27.30
2017-12-03T04:06:13.848Z,29.40
2017-12-03T04:08:40.756Z,29.73
2017-12-03T04:11:07.694Z,25.83
2017-12-03T04:13:34.584Z,29.70
2017-12-03T04:16:02.256Z,27.60
2017-12-03T04:18:29.196Z,28.50
2017-12-03T04:20:56.050Z,29.33
2017-12-03T04:23:23.652Z,30.92
2017-12-03T04:25:50.555Z,30.02
2017-12-03T04:28:18.162Z,28.40
2017-12-03T04:30:45.032Z,29.27
2017-12-03T04:33:11.883Z,29.45
2017-12-03T04:35:38.888Z,27.98
2017-12-03T04:38:06.618Z,28.60
2017-12-03T04:40:34.280Z,26.23
2017-12-03T04:43:01.225Z,28.67
2017-12-03T04:45:28.156Z,34.25
2017-12-03T04:47:55.096Z,24.30
2017-12-03T04:50:21.995Z,30.45
2017-12-03T04:52:48.961Z,32.67
2017-12-03T04:55:15.902Z,28.75
2017-12-03T04:57:42.828Z,28.83
2017-12-03T05:00:09.764Z,25.35
2017-12-03T05:02:36.823Z,27.65
2017-12-03T05:05:04.483Z,27.77
2017-12-03T05:07:31.399Z,25.17
2017-12-03T05:09:59.018Z,26.92
2017-12-03T05:12:25.967Z,26.50
2017-12-03T05:14:52.859Z,29.80
2017-12-03T05:17:19.803Z,26.58
2017-12-03T05:19:46.736Z,28.85
2017-12-03T05:22:13.655Z,30.73
2017-12-03T05:24:40.574Z,27.90
2017-12-03T05:27:07.495Z,28.17
2017-12-03T05:29:34.455Z,30.37
2017-12-03T05:32:01.400Z,26.95
2017-12-03T05:34:28.610Z,28.62
2017-12-03T05:36:56.501Z,27.15
2017-12-03T05:39:23.434Z,27.87
2017-12-03T05:41:50.392Z,28.87
2017-12-03T05:44:17.339Z,29.15
2017-12-03T05:46:44.359Z,30.60
2017-12-03T05:49:11.395Z,27.98
2017-12-03T05:51:38.328Z,31.10
2017-12-03T05:54:05.319Z,27.77
2017-12-03T05:56:32.230Z,34.22
2017-12-03T05:59:00.392Z,32.83
2017-12-03T06:01:27.295Z,26.02
2017-12-03T06:03:54.201Z,30.05
2017-12-03T06:06:21.099Z,29.50
2017-12-03T06:08:48.031Z,25.42
2017-12-03T06:11:14.958Z,28.42
2017-12-03T06:13:41.916Z,25.58
2017-12-03T06:16:08.847Z,27.73
2017-12-03T06:18:35.904Z,30.70
2017-12-03T06:21:02.935Z,28.67
2017-12-03T06:23:29.919Z,22.95
2017-12-03T06:25:57.605Z,29.42
2017-12-03T06:28:25.296Z,27.30
2017-12-03T06:30:52.251Z,27.55
2017-12-03T06:33:19.220Z,32.75
2017-12-03T06:35:46.167Z,29.10
2017-12-03T06:38:13.040Z,26.62
2017-12-03T06:40:41.040Z,30.00
2017-12-03T06:43:08.072Z,24.75
2017-12-03T06:45:35.768Z,29.70
2017-12-03T06:48:03.432Z,27.52
2017-12-03T06:50:30.356Z,25.83
2017-12-03T06:52:57.292Z,29.15
2017-12-03T06:55:24.984Z,27.95
2017-12-03T06:57:52.157Z,26.08
2017-12-03T07:00:19.146Z,27.00
2017-12-03T07:02:46.056Z,29.30
2017-12-03T07:05:13.052Z,31.33
2017-12-03T07:07:40.718Z,24.02
2017-12-03T07:10:08.407Z,31.33
2017-12-03T07:12:35.547Z,30.92
2017-12-03T07:15:02.554Z,32.88
2017-12-03T07:17:30.203Z,31.70
2017-12-03T07:19:57.146Z,28.45
2017-12-03T07:22:24.109Z,27.00
2017-12-03T07:24:51.795Z,31.60
2017-12-03T07:27:18.836Z,35.70
2017-12-03T07:29:46.039Z,32.45
2017-12-03T07:32:12.964Z,34.35
2017-12-03T07:34:39.903Z,31.15
2017-12-03T07:37:06.838Z,33.05
2017-12-03T07:39:34.559Z,30.98
2017-12-03T07:42:01.524Z,29.70
2017-12-03T07:44:29.260Z,32.95
2017-12-03T07:46:56.575Z,31.83
2017-12-03T07:50:43.136Z,26.65
2017-12-03T07:53:10.119Z,34.15
2017-12-03T07:55:37.391Z,32.92
2017-12-03T07:58:05.748Z,33.17
2017-12-03T08:00:34.303Z,29.37
2017-12-03T08:03:01.944Z,38.90
2017-12-03T08:05:29.685Z,35.65
2017-12-03T08:07:56.667Z,31.27
2017-12-03T08:10:24.450Z,32.22
2017-12-03T08:12:52.088Z,38.35
2017-12-03T08:15:19.739Z,32.28
2017-12-03T08:17:46.828Z,31.17
2017-12-03T08:20:13.758Z,40.03
2017-12-03T08:22:41.187Z,30.95
2017-12-03T08:25:08.164Z,28.15
2017-12-03T08:27:36.727Z,38.10
2017-12-03T08:30:04.415Z,30.90
2017-12-03T08:32:31.335Z,33.47
2017-12-03T08:34:59.035Z,28.33
2017-12-03T08:37:25.968Z,29.73
2017-12-03T08:39:52.881Z,29.08
2017-12-03T08:42:20.377Z,27.48
2017-12-03T08:44:47.272Z,28.08
2017-12-03T08:47:15.195Z,29.98
2017-12-03T08:49:42.066Z,24.85
2017-12-03T08:52:08.976Z,24.70
2017-12-03T08:54:36.033Z,23.30
2017-12-03T08:57:02.969Z,23.48
2017-12-03T08:59:29.867Z,36.83
2017-12-03T09:01:57.576Z,30.80
2017-12-03T09:04:24.490Z,30.08
2017-12-03T09:06:52.169Z,25.98
2017-12-03T09:09:19.099Z,21.58
2017-12-03T09:11:46.019Z,21.08
2017-12-03T09:14:12.963Z,25.25
2017-12-03T09:16:39.872Z,24.87
2017-12-03T09:19:06.840Z,23.62
2017-12-03T09:21:33.767Z,20.50
2017-12-03T09:24:01.467Z,24.60
2017-12-03T09:26:28.415Z,24.50
2017-12-03T09:28:56.151Z,28.20
2017-12-03T09:31:23.124Z,23.52
2017-12-03T09:33:50.776Z,20.70
2017-12-03T09:36:17.703Z,20.85
2017-12-03T09:38:45.375Z,19.33
2017-12-03T09:41:12.276Z,18.62
2017-12-03T09:43:39.224Z,20.90
2017-12-03T09:46:06.142Z,22.35
2017-12-03T09:48:33.850Z,21.98
2017-12-03T09:51:01.584Z,20.12
2017-12-03T09:53:28.495Z,22.10
2017-12-03T09:55:55.443Z,19.48
2017-12-03T09:58:23.090Z,17.85
2017-12-03T10:00:50.048Z,22.05
2017-12-03T10:03:16.970Z,19.15
2017-12-03T10:05:43.868Z,17.23
2017-12-03T10:08:10.856Z,15.52
2017-12-03T10:10:37.744Z,14.18
2017-12-03T10:13:05.439Z,12.43
2017-12-03T10:15:32.411Z,17.27
2017-12-03T10:17:59.334Z,17.75
2017-12-03T10:20:26.281Z,14.82
2017-12-03T10:22:53.277Z,14.35
2017-12-03T10:25:20.280Z,14.10
2017-12-03T10:27:48.013Z,13.83
2017-12-03T10:30:15.120Z,14.70
2017-12-03T10:32:42.186Z,16.63
2017-12-03T10:35:09.123Z,14.10
2017-12-03T10:37:36.058Z,13.50
2017-12-03T10:40:02.976Z,15.57
2017-12-03T10:42:29.876Z,13.87
2017-12-03T10:44:57.531Z,16.03
2017-12-03T10:47:25.188Z,14.20
2017-12-03T10:49:52.866Z,13.83
2017-12-03T10:52:19.887Z,13.83
2017-12-03T10:54:46.856Z,14.60
2017-12-03T10:57:13.701Z,15.20
2017-12-03T10:59:40.611Z,11.80
2017-12-03T11:02:07.582Z,15.37
2017-12-03T11:04:34.557Z,12.80
2017-12-03T11:07:01.459Z,14.30
2017-12-03T11:09:28.442Z,13.63
2017-12-03T11:11:55.353Z,13.10
2017-12-03T11:14:22.196Z,14.17
2017-12-03T11:16:49.830Z,12.47
2017-12-03T11:19:16.730Z,12.60
2017-12-03T11:21:43.642Z,13.40
2017-12-03T11:24:10.516Z,13.43
2017-12-03T11:26:37.403Z,12.83
2017-12-03T11:29:04.349Z,13.20
2017-12-03T11:31:31.288Z,13.87
2017-12-03T11:33:58.190Z,12.03
2017-12-03T11:36:25.883Z,14.30
2017-12-03T11:38:52.896Z,14.27
2017-12-03T11:41:19.815Z,14.40
2017-12-03T11:43:46.685Z,12.90
2017-12-03T11:46:13.588Z,14.03
2017-12-03T11:48:40.582Z,14.17
2017-12-03T11:51:07.498Z,13.43
2017-12-03T11:53:35.192Z,14.10
2017-12-03T11:56:02.095Z,15.07
2017-12-03T11:58:28.959Z,13.57
2017-12-03T12:00:56.648Z,13.20
2017-12-03T12:03:23.628Z,12.67
2017-12-03T12:05:51.252Z,13.80
2017-12-03T12:08:18.187Z,14.63
2017-12-03T12:10:45.059Z,13.77
2017-12-03T12:13:11.949Z,13.00
2017-12-03T12:15:39.606Z,13.33
2017-12-03T12:18:07.446Z,13.40
2017-12-03T12:20:34.460Z,13.07
2017-12-03T12:23:01.424Z,12.60
2017-12-03T12:25:28.379Z,13.13
2017-12-03T12:27:55.256Z,14.23
2017-12-03T12:30:22.128Z,13.13
2017-12-03T12:32:49.003Z,13.93
2017-12-03T12:35:16.648Z,13.67
2017-12-03T12:37:43.545Z,13.07
2017-12-03T12:40:10.472Z,14.20
2017-12-03T12:42:37.359Z,13.00
2017-12-03T12:45:05.043Z,18.37
2017-12-03T12:47:32.011Z,13.87
2017-12-03T12:49:59.823Z,14.43
2017-12-03T12:52:27.463Z,13.50
2017-12-03T12:54:54.372Z,13.50
2017-12-03T12:57:21.299Z,12.80
2017-12-03T12:59:48.227Z,12.27
2017-12-03T13:02:15.105Z,12.80
2017-12-03T13:04:42.021Z,13.00
2017-12-03T13:07:09.003Z,13.00
2017-12-03T13:09:35.894Z,12.00
2017-12-03T13:12:03.997Z,11.97
2017-12-03T13:14:31.019Z,12.43
2017-12-03T13:16:57.920Z,12.00
2017-12-03T13:19:25.530Z,13.57
2017-12-03T13:21:53.164Z,12.50
2017-12-03T13:24:20.079Z,12.40
2017-12-03T13:26:46.989Z,13.67
2017-12-03T13:29:13.876Z,12.93
2017-12-03T13:31:40.747Z,12.50
2017-12-03T13:34:08.411Z,12.10
2017-12-03T13:36:36.235Z,12.70
2017-12-03T13:39:03.382Z,13.50
2017-12-03T13:41:30.271Z,12.67
2017-12-03T13:43:57.155Z,13.37
2017-12-03T13:46:24.064Z,11.97
2017-12-03T13:48:51.038Z,16.77
2017-12-03T13:51:17.900Z,11.97
2017-12-03T13:53:44.803Z,10.80
2017-12-03T13:56:12.448Z,11.50
2017-12-03T13:58:39.360Z,11.90
2017-12-03T14:01:06.244Z,12.30
2017-12-03T14:03:33.155Z,13.65
2017-12-03T14:06:00.059Z,10.40
2017-12-03T14:08:26.967Z,13.62
2017-12-03T14:10:54.610Z,12.70
2017-12-03T14:13:21.532Z,11.57
2017-12-03T14:15:48.443Z,12.10
2017-12-03T14:18:15.353Z,12.73
2017-12-03T14:20:43.088Z,11.77
2017-12-03T14:23:10.940Z,14.35
2017-12-03T14:25:38.727Z,12.20
2017-12-03T14:28:06.476Z,10.25
2017-12-03T14:30:34.213Z,11.50
2017-12-03T14:33:01.196Z,11.43
2017-12-03T14:35:28.117Z,13.32
2017-12-03T14:37:55.039Z,18.08
2017-12-03T14:40:22.731Z,10.75
2017-12-03T14:42:49.660Z,11.70
2017-12-03T14:45:16.632Z,10.75
2017-12-03T14:47:43.663Z,11.65
2017-12-03T14:50:10.592Z,13.38
2017-12-03T14:52:37.507Z,12.82
2017-12-03T14:55:05.225Z,13.52
2017-12-03T14:57:32.183Z,11.25
2017-12-03T14:59:59.226Z,12.48
2017-12-03T15:02:26.154Z,12.75
2017-12-03T15:04:53.468Z,11.43
2017-12-03T15:07:20.619Z,13.23
2017-12-03T15:09:47.651Z,12.63
2017-12-03T15:12:14.647Z,11.52
2017-12-03T15:14:41.659Z,11.93
2017-12-03T15:17:08.808Z,11.95
2017-12-03T15:19:35.849Z,11.70
2017-12-03T15:22:02.956Z,16.92
2017-12-03T15:24:30.076Z,13.75
2017-12-03T15:26:57.136Z,14.65
2017-12-03T15:29:24.186Z,22.23
2017-12-03T15:31:52.390Z,22.52
2017-12-03T15:34:19.364Z,19.40
2017-12-03T15:36:47.379Z,32.58
2017-12-03T15:39:14.487Z,31.35
2017-12-03T15:41:42.689Z,29.55
2017-12-03T15:44:09.752Z,26.27
2017-12-03T15:46:36.839Z,29.02
2017-12-03T15:49:04.667Z,26.25
2017-12-03T15:51:32.536Z,26.45
2017-12-03T15:53:59.527Z,23.98
2017-12-03T15:56:27.552Z,25.95
2017-12-03T15:58:54.534Z,27.73
2017-12-03T16:01:21.735Z,29.17
2017-12-03T16:03:49.491Z,26.15
2017-12-03T16:06:16.418Z,29.17
2017-12-03T16:08:44.276Z,32.88
2017-12-03T16:11:11.387Z,27.60
2017-12-03T16:13:39.075Z,35.22
2017-12-03T16:16:06.231Z,27.27
2017-12-03T16:18:33.360Z,24.10
2017-12-03T16:21:00.462Z,30.67
2017-12-03T16:23:27.476Z,28.55
2017-12-03T16:25:54.741Z,27.27
2017-12-03T16:28:21.655Z,26.77
2017-12-03T16:30:48.827Z,30.12
2017-12-03T16:33:16.961Z,28.50
2017-12-03T16:35:44.107Z,25.83
2017-12-03T16:38:11.243Z,23.17
2017-12-03T16:40:38.356Z,23.85
2017-12-03T16:43:05.276Z,23.12
2017-12-03T16:45:32.479Z,20.20
2017-12-03T16:47:59.655Z,22.02
2017-12-03T16:50:26.828Z,20.12
2017-12-03T16:52:54.660Z,25.50
2017-12-03T16:55:22.391Z,30.80
2017-12-03T16:57:49.295Z,34.55
2017-12-03T17:00:16.221Z,35.75
2017-12-03T17:02:43.124Z,33.38
2017-12-03T17:05:11.143Z,30.70
2017-12-03T17:07:38.864Z,34.67
2017-12-03T17:10:06.741Z,32.50
2017-12-03T17:12:34.553Z,34.78
2017-12-03T17:15:01.676Z,27.25
2017-12-03T17:17:28.664Z,24.15
2017-12-03T17:19:55.809Z,30.60
2017-12-03T17:22:22.768Z,31.92
2017-12-03T17:24:49.802Z,29.98
2017-12-03T17:27:16.872Z,33.63
2017-12-03T17:29:44.020Z,31.70
2017-12-03T17:32:11.193Z,29.08
2017-12-03T17:34:39.196Z,33.22
2017-12-03T17:37:06.565Z,28.02
2017-12-03T17:39:33.542Z,30.95
2017-12-03T17:42:01.303Z,23.58
2017-12-03T17:47:02.792Z,27.75
2017-12-03T17:49:29.810Z,31.85
2017-12-03T17:51:56.864Z,28.45
2017-12-03T17:54:24.859Z,28.23
2017-12-03T17:56:52.499Z,38.92
2017-12-03T17:59:19.420Z,38.20
2017-12-03T18:01:46.372Z,39.95
2017-12-03T18:04:15.283Z,40.65
2017-12-03T18:06:43.012Z,33.15
2017-12-03T18:09:10.723Z,37.63
2017-12-03T18:11:37.623Z,38.17
2017-12-03T18:14:04.460Z,37.03
2017-12-03T18:16:31.329Z,34.53
2017-12-03T18:18:58.948Z,33.72
2017-12-03T18:21:25.843Z,39.95
2017-12-03T18:23:52.784Z,39.28
2017-12-03T18:26:19.763Z,43.70
2017-12-03T18:28:46.712Z,40.17
2017-12-03T18:31:14.430Z,42.85
2017-12-03T18:33:42.056Z,35.63
2017-12-03T18:36:09.121Z,31.05
2017-12-03T18:38:36.467Z,28.35
2017-12-03T18:41:05.260Z,25.42
2017-12-03T18:43:32.266Z,29.67
2017-12-03T18:45:59.227Z,27.02
2017-12-03T18:48:26.203Z,29.73
2017-12-03T18:50:53.197Z,24.63
2017-12-03T18:53:20.164Z,28.23
2017-12-03T18:55:47.351Z,26.20
2017-12-03T18:58:14.359Z,26.55
2017-12-03T19:00:41.400Z,27.73
2017-12-03T19:03:08.383Z,30.15
2017-12-03T19:05:35.396Z,28.38
2017-12-03T19:08:02.308Z,34.13
2017-12-03T19:10:29.220Z,34.47
2017-12-03T19:12:56.095Z,32.05
2017-12-03T19:15:23.003Z,39.42
2017-12-03T19:17:49.916Z,38.50
2017-12-03T19:20:16.947Z,43.60
2017-12-03T19:22:43.913Z,42.20
2017-12-03T19:25:10.829Z,40.10
2017-12-03T19:27:37.776Z,32.25
2017-12-03T19:30:04.652Z,36.67
2017-12-03T19:32:31.569Z,35.75
2017-12-03T19:34:58.531Z,32.97
2017-12-03T19:37:25.532Z,31.98
2017-12-03T19:39:52.516Z,33.70
2017-12-03T19:42:19.389Z,30.95
2017-12-03T19:44:46.321Z,34.60
2017-12-03T19:47:13.261Z,32.42
2017-12-03T19:49:40.192Z,32.08
2017-12-03T19:52:07.160Z,31.62
2017-12-03T19:54:34.166Z,36.05
2017-12-03T19:57:01.144Z,32.05
2017-12-03T19:59:28.083Z,33.65
2017-12-03T20:01:55.976Z,30.80
2017-12-03T20:04:22.855Z,38.28
2017-12-03T20:06:50.548Z,37.20
2017-12-03T20:09:17.441Z,35.25
2017-12-03T20:11:45.400Z,37.58
2017-12-03T20:14:13.379Z,38.35
2017-12-03T20:16:40.409Z,36.38
2017-12-03T20:19:07.414Z,44.17
2017-12-03T20:21:34.519Z,45.05
2017-12-03T20:24:01.536Z,45.03
2017-12-03T20:26:29.506Z,51.33
2017-12-03T20:28:56.440Z,51.28
2017-12-03T20:31:23.395Z,52.38
2017-12-03T20:33:51.110Z,45.50
2017-12-03T20:36:18.063Z,37.28
2017-12-03T20:38:45.016Z,43.03
2017-12-03T20:41:12.120Z,42.67
2017-12-03T20:43:39.149Z,41.70
2017-12-03T20:46:06.234Z,44.20
2017-12-03T20:48:33.807Z,38.85
2017-12-03T20:51:01.564Z,35.10
2017-12-03T20:53:28.679Z,41.85
2017-12-03T20:55:56.377Z,41.15
2017-12-03T20:58:24.243Z,38.40
2017-12-03T21:00:51.905Z,36.38
2017-12-03T21:03:19.563Z,41.88
2017-12-03T21:05:46.570Z,37.38
2017-12-03T21:08:13.644Z,34.25
2017-12-03T21:10:40.716Z,35.17
2017-12-03T21:13:07.688Z,41.00
2017-12-03T21:15:35.511Z,44.47
2017-12-03T21:18:02.461Z,33.95
2017-12-03T21:20:30.089Z,41.85
2017-12-03T21:22:57.163Z,36.80
2017-12-03T21:25:24.788Z,39.30
2017-12-03T21:27:51.741Z,34.92
2017-12-03T21:30:18.648Z,40.63
2017-12-03T21:32:45.630Z,31.87
2017-12-03T21:35:12.727Z,37.22
2017-12-03T21:37:39.757Z,33.95
2017-12-03T21:40:07.444Z,38.45
2017-12-03T21:42:34.348Z,36.15
2017-12-03T21:45:01.204Z,41.17
2017-12-03T21:47:29.007Z,38.70
2017-12-03T21:49:55.974Z,36.78
2017-12-03T21:52:23.644Z,36.55
2017-12-03T21:54:50.620Z,31.25
2017-12-03T21:57:17.586Z,26.98
2017-12-03T21:59:45.232Z,28.80
2017-12-03T22:02:12.920Z,31.75
2017-12-03T22:04:40.519Z,37.85
2017-12-03T22:07:07.416Z,34.72
2017-12-03T22:09:34.259Z,31.45
2017-12-03T22:12:01.143Z,27.55
2017-12-03T22:14:28.043Z,29.83
2017-12-03T22:16:55.776Z,23.27
2017-12-03T22:19:22.685Z,36.35
2017-12-03T22:21:49.575Z,27.45
2017-12-03T22:24:16.451Z,24.50
2017-12-03T22:26:44.082Z,26.33
2017-12-03T22:29:10.976Z,28.52
2017-12-03T22:31:37.855Z,25.50
2017-12-03T22:34:04.739Z,30.27
2017-12-03T22:36:31.663Z,25.67
2017-12-03T22:38:58.543Z,25.20
2017-12-03T22:41:25.642Z,26.52
2017-12-03T22:43:52.519Z,24.08
2017-12-03T22:46:19.394Z,23.45
2017-12-03T22:48:46.302Z,23.70
2017-12-03T22:51:13.187Z,29.35
2017-12-03T22:53:41.579Z,26.98
2017-12-03T22:56:08.512Z,27.75
2017-12-03T22:58:36.123Z,32.47
2017-12-03T23:01:03.766Z,32.72
2017-12-03T23:03:31.412Z,37.00
2017-12-03T23:05:58.352Z,38.13
2017-12-03T23:08:25.188Z,34.17
2017-12-03T23:10:52.074Z,39.20
2017-12-03T23:13:18.943Z,36.55
2017-12-03T23:15:45.818Z,37.53
2017-12-03T23:18:12.733Z,35.20
2017-12-03T23:20:40.306Z,37.90
2017-12-03T23:23:07.274Z,32.80
2017-12-03T23:25:34.176Z,29.77
2017-12-03T23:28:01.272Z,30.50
2017-12-03T23:30:28.211Z,33.00
2017-12-03T23:32:55.116Z,32.15
2017-12-03T23:35:22.023Z,27.77
2017-12-03T23:37:48.942Z,31.40
2017-12-03T23:40:15.835Z,30.98
2017-12-03T23:42:42.760Z,30.10
2017-12-03T23:45:09.671Z,35.15
2017-12-03T23:47:36.520Z,25.52
2017-12-03T23:50:03.429Z,26.70
2017-12-03T23:52:30.352Z,25.73
2017-12-03T23:54:57.305Z,26.62
2017-12-03T23:57:24.237Z,30.95
2017-12-03T23:59:51.201Z,31.62
